Time;durP1;ratioP1;P1;durP2;ratioP2;P2;SDS_P1;SDS_P2;PMS_P1;PMS_P2;Temp;Humidity;BMP_temperature;BMP_pressure;BME280_temperature;BME280_humidity;BME280_pressure;Samples;Min_cycle;Max_cycle;Signal;HPM_P1;HPM_P2
2022/06/05 00:01:18;;;;;;;0.00;0.00;;;;;;;16.31;54.58;101409.72;7363567;19;20017;-61
2022/06/05 00:04:02;;;;;;;0.00;0.00;;;;;;;16.28;54.26;101415.13;7264967;19;2006194;-64
2022/06/05 00:06:36;;;;;;;0.00;0.00;;;;;;;16.25;54.59;101414.38;7366316;19;20050;-63
2022/06/05 00:09:15;;;;;;;0.00;0.00;;;;;;;16.22;54.61;101415.34;7364291;19;20462;-64
2022/06/05 00:11:47;;;;;;;0.00;0.00;;;;;;;16.18;55.42;101413.72;7368021;19;20010;-64
2022/06/05 00:14:13;;;;;;;0.00;0.00;;;;;;;16.12;55.48;101402.50;7362641;19;21077;-63
2022/06/05 00:16:38;;;;;;;0.00;0.00;;;;;;;16.07;55.30;101400.94;7365024;19;20025;-63
2022/06/05 00:19:03;;;;;;;0.00;0.00;;;;;;;16.05;55.53;101396.59;7363366;19;20011;-64
2022/06/05 00:21:29;;;;;;;0.00;0.00;;;;;;;15.99;55.51;101392.41;7363805;19;20168;-63
2022/06/05 00:23:54;;;;;;;0.00;0.00;;;;;;;15.97;56.30;101396.88;7362085;19;20113;-63
2022/06/05 00:26:32;;;;;;;0.00;0.00;;;;;;;15.95;54.89;101385.53;7363869;19;20010;-63
2022/06/05 00:29:15;;;;;;;0.00;0.00;;;;;;;15.80;54.17;101360.56;7366060;19;20507;-62
2022/06/05 00:31:58;;;;;;;0.00;0.00;;;;;;;15.89;55.34;101390.16;7367049;19;20069;-63
2022/06/05 00:34:24;;;;;;;0.00;0.00;;;;;;;15.83;56.12;101391.22;7363367;19;20007;-64
2022/06/05 00:37:14;;;;;;;0.00;0.00;;;;;;;15.81;54.54;101391.28;7367135;19;20494;-63
2022/06/05 00:39:50;;;;;;;0.00;0.00;;;;;;;15.78;55.73;101394.00;7261914;19;2004472;-63
2022/06/05 00:42:19;;;;;;;0.00;0.00;;;;;;;15.66;55.96;101372.47;7367495;19;20010;-63
2022/06/05 00:44:57;;;;;;;0.00;0.00;;;;;;;15.73;55.24;101390.66;7365119;19;20444;-64
2022/06/05 00:47:26;;;;;;;0.00;0.00;;;;;;;15.65;56.11;101365.47;7365912;19;20006;-63
2022/06/05 00:49:57;;;;;;;0.00;0.00;;;;;;;15.69;56.58;101367.97;7365525;19;20015;-64
2022/06/05 00:52:26;;;;;;;0.00;0.00;;;;;;;15.66;56.48;101360.19;7363539;19;20010;-64
2022/06/05 00:54:51;;;;;;;0.00;0.00;;;;;;;15.63;56.11;101352.38;7366613;19;20432;-62
2022/06/05 00:57:18;;;;;;;0.00;0.00;;;;;;;15.62;56.21;101360.31;7364227;19;20007;-63
2022/06/05 00:59:45;;;;;;;0.00;0.00;;;;;;;15.61;56.90;101359.41;7364307;19;20029;-62
2022/06/05 01:02:12;;;;;;;0.00;0.00;;;;;;;15.59;56.70;101363.88;7364762;19;20014;-62
2022/06/05 01:04:42;;;;;;;0.00;0.00;;;;;;;15.57;56.08;101352.56;7366054;19;20018;-64
2022/06/05 01:07:07;;;;;;;0.00;0.00;;;;;;;15.48;57.01;101348.44;7360229;19;20067;-63
2022/06/05 01:09:34;;;;;;;0.00;0.00;;;;;;;15.50;56.91;101357.13;7364229;19;20014;-62
2022/06/05 01:12:00;;;;;;;0.00;0.00;;;;;;;15.46;56.91;101347.66;7365529;19;20018;-63
2022/06/05 01:14:31;;;;;;;0.00;0.00;;;;;;;15.44;56.50;101361.75;7363721;19;20018;-63
2022/06/05 01:16:59;;;;;;;0.00;0.00;;;;;;;15.39;57.07;101364.53;7365518;19;20060;-63
2022/06/05 01:19:47;;;;;;;0.00;0.00;;;;;;;15.36;55.83;101356.75;7364520;19;20018;-63
2022/06/05 01:22:30;;;;;;;0.00;0.00;;;;;;;15.34;55.64;101349.81;7364349;19;20010;-64
2022/06/05 01:25:08;;;;;;;0.00;0.00;;;;;;;15.27;57.57;101360.53;7364443;19;20015;-64
2022/06/05 01:27:37;;;;;;;;;;;;;;;15.26;54.76;101361.44;7363191;19;20018;-63
2022/06/05 01:30:19;;;;;;;0.00;0.00;;;;;;;15.22;56.47;101357.19;7364920;19;20002;-64
2022/06/05 01:32:53;;;;;;;0.00;0.00;;;;;;;15.18;56.90;101350.28;7363824;19;20003;-63
2022/06/05 01:35:41;;;;;;;0.00;0.00;;;;;;;15.08;56.87;101335.69;7364764;19;20041;-64
2022/06/05 01:38:15;;;;;;;0.00;0.00;;;;;;;15.15;57.72;101350.38;7366080;19;20003;-63
2022/06/05 01:40:46;;;;;;;0.00;0.00;;;;;;;15.15;58.16;101350.38;7360386;19;20407;-64
2022/06/05 01:43:16;;;;;;;0.00;0.00;;;;;;;15.16;58.63;101346.84;7364816;19;20006;-63
2022/06/05 01:45:44;;;;;;;0.00;0.00;;;;;;;15.17;58.71;101348.56;7363546;19;20006;-63
2022/06/05 01:48:18;;;;;;;0.00;0.00;;;;;;;15.11;58.38;101327.72;7361020;19;20548;-63
2022/06/05 01:50:48;;;;;;;0.00;0.00;;;;;;;15.10;58.09;101323.34;7360196;19;20038;-64
2022/06/05 01:53:43;;;;;;;0.00;0.00;;;;;;;15.23;57.61;101337.00;7364187;19;20450;-63
2022/06/05 01:56:34;;;;;;;0.00;0.00;;;;;;;15.26;57.23;101335.13;7262379;19;2004906;-64
2022/06/05 01:59:08;;;;;;;0.00;0.00;;;;;;;15.26;58.02;101329.88;7253354;19;2004394;-64
2022/06/05 02:01:38;;;;;;;0.00;0.00;;;;;;;15.27;58.43;101323.69;7365353;19;20011;-64
2022/06/05 02:04:11;;;;;;;0.00;0.00;;;;;;;15.29;57.91;101326.25;7365442;19;20033;-64
2022/06/05 02:06:42;;;;;;;0.00;0.00;;;;;;;15.29;58.15;101329.75;7363758;19;20003;-64
2022/06/05 02:09:19;;;;;;;0.00;0.00;;;;;;;15.31;57.09;101330.59;7363265;19;20006;-64
2022/06/05 02:11:45;;;;;;;0.00;0.00;;;;;;;15.30;58.18;101331.47;7366104;19;20011;-62
2022/06/05 02:14:12;;;;;;;0.00;0.00;;;;;;;15.32;57.84;101329.66;7364514;19;21908;-63
2022/06/05 02:16:39;;;;;;;0.00;0.00;;;;;;;15.35;58.31;101335.72;7364298;19;20501;-64
2022/06/05 02:19:09;;;;;;;0.00;0.00;;;;;;;15.36;58.39;101330.44;7364551;19;20014;-63
2022/06/05 02:21:37;;;;;;;0.00;0.00;;;;;;;15.35;58.75;101325.19;7363454;19;20022;-62
2022/06/05 02:24:04;;;;;;;0.00;0.00;;;;;;;15.34;58.67;101323.47;7364989;19;20699;-63
2022/06/05 02:26:30;;;;;;;0.00;0.00;;;;;;;15.40;58.71;101333.81;7362876;19;20714;-64
2022/06/05 02:28:56;;;;;;;0.00;0.00;;;;;;;15.40;58.64;101329.41;7363711;19;20046;-62
2022/06/05 02:31:34;;;;;;;0.00;0.00;;;;;;;15.43;58.45;101328.44;7362207;19;20011;-63
2022/06/05 02:34:11;;;;;;;0.00;0.00;;;;;;;15.42;57.65;101326.75;7364803;19;20014;-63
2022/06/05 02:36:55;;;;;;;;;;;;;;;15.45;55.90;101324.00;7363823;19;20015;-63
2022/06/05 02:39:23;;;;;;;0.00;0.00;;;;;;;15.43;58.98;101325.81;7365636;19;19918;-63
2022/06/05 02:41:59;;;;;;;0.00;0.00;;;;;;;15.44;57.81;101322.28;7361257;19;20022;-63
2022/06/05 02:44:43;;;;;;;0.00;0.00;;;;;;;15.43;57.11;101321.41;7361277;19;20029;-63
2022/06/05 02:47:20;;;;;;;0.00;0.00;;;;;;;15.41;58.06;101325.00;7362498;19;20106;-62
2022/06/05 02:50:17;;;;;;;0.00;0.00;;;;;;;15.42;56.93;101324.09;7364649;19;20010;-63
2022/06/05 02:52:43;;;;;;;0.00;0.00;;;;;;;15.38;58.98;101319.84;7261833;19;2004420;-62
2022/06/05 02:55:15;;;;;;;0.00;0.00;;;;;;;15.39;58.49;101332.09;7362760;19;20006;-63
2022/06/05 02:57:42;;;;;;;0.00;0.00;;;;;;;15.36;58.71;101316.38;7360577;19;20014;-64
2022/06/05 03:00:12;;;;;;;0.00;0.00;;;;;;;15.36;58.56;101311.13;7363859;19;20050;-59
2022/06/05 03:05:21;;;;;;;0.00;0.00;;;;;;;15.31;58.95;101306.03;7348674;19;20497;-63
2022/06/05 03:07:46;;;;;;;0.00;0.00;;;;;;;15.31;58.77;101312.16;7365199;19;20011;-63
2022/06/05 03:10:13;;;;;;;0.00;0.00;;;;;;;15.27;58.77;101307.91;7364168;19;20025;-63
2022/06/05 03:12:38;;;;;;;0.00;0.00;;;;;;;15.24;59.28;101302.72;7362959;19;20018;-64
2022/06/05 03:15:06;;;;;;;0.00;0.00;;;;;;;14.97;59.13;101262.41;7364238;19;20342;-63
2022/06/05 03:17:32;;;;;;;0.00;0.00;;;;;;;15.23;59.10;101308.91;7357400;19;20025;-64
2022/06/05 03:19:58;;;;;;;0.00;0.00;;;;;;;15.22;59.12;101308.97;7352479;19;20010;-63
2022/06/05 03:22:24;;;;;;;0.00;0.00;;;;;;;15.21;58.97;101299.34;7359347;19;20576;-63
2022/06/05 03:24:50;;;;;;;0.00;0.00;;;;;;;15.19;59.04;101299.38;7364714;19;20014;-63
2022/06/05 03:27:15;;;;;;;0.00;0.00;;;;;;;15.14;59.33;101285.53;7367225;19;20003;-62
2022/06/05 03:29:41;;;;;;;0.00;0.00;;;;;;;15.18;59.20;101286.28;7371635;19;20025;-64
2022/06/05 03:32:06;;;;;;;0.00;0.00;;;;;;;15.18;59.31;101281.88;7369849;19;20018;-63
2022/06/05 03:34:32;;;;;;;0.08;0.08;;;;;;;15.16;59.32;101278.44;7371317;19;20014;-63
2022/06/05 03:36:57;;;;;;;0.00;0.00;;;;;;;15.16;59.38;101285.50;7367116;19;20010;-63
2022/06/05 03:39:22;;;;;;;0.00;0.00;;;;;;;15.14;59.39;101288.16;7369944;19;20006;-64
2022/06/05 03:41:48;;;;;;;0.00;0.00;;;;;;;15.13;59.35;101283.81;7369913;19;20021;-63
2022/06/05 03:44:14;;;;;;;0.00;0.00;;;;;;;15.13;59.56;101285.56;7370212;19;20011;-62
2022/06/05 03:46:40;;;;;;;0.00;0.00;;;;;;;15.09;59.13;101282.16;7370028;19;20006;-63
2022/06/05 03:49:07;;;;;;;0.00;0.00;;;;;;;15.12;59.51;101289.13;7370986;19;20014;-63
2022/06/05 03:51:33;;;;;;;0.00;0.00;;;;;;;15.10;59.43;101289.16;7367613;19;20014;-63
2022/06/05 03:53:58;;;;;;;0.10;0.10;;;;;;;15.06;59.28;101279.66;7370099;19;20025;-62
2022/06/05 03:56:26;;;;;;;0.00;0.00;;;;;;;15.10;59.73;101289.16;7365548;19;20029;-62
2022/06/05 03:58:52;;;;;;;0.00;0.00;;;;;;;15.12;59.72;101295.25;7368125;19;20014;-63
2022/06/05 04:01:20;;;;;;;0.00;0.00;;;;;;;15.13;59.62;101283.81;7370058;19;20014;-64
2022/06/05 04:03:46;;;;;;;0.00;0.00;;;;;;;15.12;59.85;101281.22;7369061;19;22336;-63
2022/06/05 04:06:14;;;;;;;0.00;0.00;;;;;;;15.13;59.95;101273.28;7368569;19;20095;-64
2022/06/05 04:08:40;;;;;;;0.00;0.00;;;;;;;15.03;59.62;101251.66;7367530;19;20015;-62
2022/06/05 04:11:07;;;;;;;0.00;0.00;;;;;;;15.14;59.86;101272.38;7369475;19;20066;-62
2022/06/05 04:13:33;;;;;;;0.00;0.00;;;;;;;15.02;59.95;101257.00;7366762;19;20039;-64
2022/06/05 04:15:58;;;;;;;0.03;0.03;;;;;;;15.05;59.56;101254.25;7369322;19;21384;-63
2022/06/05 04:18:23;;;;;;;0.00;0.00;;;;;;;15.06;59.61;101261.25;7368505;19;20465;-64
2022/06/05 04:20:49;;;;;;;0.00;0.00;;;;;;;15.13;59.61;101281.16;7368266;19;20014;-61
2022/06/05 04:23:14;;;;;;;0.10;0.10;;;;;;;15.17;59.71;101279.31;7368486;19;20473;-63
2022/06/05 04:25:44;;;;;;;0.00;0.00;;;;;;;15.20;59.34;101281.81;7368684;19;20011;-63
2022/06/05 04:28:11;;;;;;;0.00;0.00;;;;;;;15.18;59.66;101276.63;7366619;19;20006;-64
2022/06/05 04:30:38;;;;;;;0.00;0.00;;;;;;;15.18;60.00;101284.50;7368885;19;20043;-63
2022/06/05 04:33:04;;;;;;;0.00;0.00;;;;;;;15.20;59.96;101284.44;7368203;19;20022;-63
2022/06/05 04:35:30;;;;;;;0.00;0.00;;;;;;;15.18;60.04;101281.88;7367367;19;20632;-64
2022/06/05 04:37:55;;;;;;;0.00;0.00;;;;;;;15.18;60.04;101281.88;7365102;19;20017;-64
2022/06/05 04:40:20;;;;;;;0.00;0.00;;;;;;;14.97;59.75;101251.88;7367246;19;20014;-63
2022/06/05 04:42:46;;;;;;;0.00;0.00;;;;;;;15.18;60.02;101284.50;7369575;19;20041;-63
2022/06/05 04:45:12;;;;;;;0.00;0.00;;;;;;;15.18;60.11;101287.16;7367316;19;20010;-63
2022/06/05 04:47:39;;;;;;;0.00;0.00;;;;;;;15.17;59.85;101290.69;7369018;19;20010;-64
2022/06/05 04:50:05;;;;;;;0.00;0.00;;;;;;;15.17;60.28;101284.56;7365098;19;20043;-63
2022/06/05 04:52:31;;;;;;;0.00;0.00;;;;;;;15.09;60.27;101276.06;7369588;19;20074;-63
2022/06/05 04:54:56;;;;;;;0.00;0.00;;;;;;;15.14;60.14;101285.53;7367608;19;20094;-63
2022/06/05 04:57:22;;;;;;;0.00;0.00;;;;;;;15.13;60.71;101283.81;7368135;19;20006;-63
2022/06/05 04:59:47;;;;;;;0.00;0.00;;;;;;;15.12;60.62;101287.34;7365331;19;20022;-64
2022/06/05 05:02:13;;;;;;;0.00;0.00;;;;;;;15.11;60.85;101283.00;7367104;19;20006;-63
2022/06/05 05:04:38;;;;;;;0.00;0.00;;;;;;;15.11;60.88;101284.78;7367075;19;20023;-64
2022/06/05 05:07:03;;;;;;;0.00;0.00;;;;;;;15.09;61.27;101270.78;7366943;19;20018;-63
2022/06/05 05:09:29;;;;;;;0.00;0.00;;;;;;;15.10;60.87;101281.25;7364039;19;20411;-63
2022/06/05 05:11:55;;;;;;;0.10;0.10;;;;;;;14.97;61.48;101266.81;7366985;19;20011;-64
2022/06/05 05:14:20;;;;;;;0.00;0.00;;;;;;;15.11;61.13;101285.63;7368900;19;20026;-63
2022/06/05 05:16:45;;;;;;;0.00;0.00;;;;;;;15.12;61.39;101286.50;7367187;19;20014;-63
2022/06/05 05:19:11;;;;;;;0.05;0.05;;;;;;;15.03;61.51;101253.44;7363907;19;20014;-63
2022/06/05 05:21:37;;;;;;;0.00;0.00;;;;;;;15.14;61.44;101269.72;7367204;19;20633;-63
2022/06/05 05:24:03;;;;;;;0.10;0.10;;;;;;;15.16;61.54;101270.56;7367991;19;20015;-64
2022/06/05 05:26:31;;;;;;;0.00;0.00;;;;;;;15.16;61.50;101261.81;7364809;19;20014;-64
2022/06/05 05:28:58;;;;;;;0.00;0.00;;;;;;;15.18;61.67;101274.00;7367119;19;20374;-63
2022/06/05 05:31:29;;;;;;;0.00;0.00;;;;;;;15.22;61.07;101270.34;7367907;19;20034;-63
2022/06/05 05:33:56;;;;;;;0.00;0.00;;;;;;;15.20;61.23;101266.03;7365124;19;20025;-63
2022/06/05 05:36:24;;;;;;;0.00;0.00;;;;;;;15.10;61.25;101244.44;7367048;19;20528;-62
2022/06/05 05:44:21;;;;;;;0.03;0.03;;;;;;;15.23;61.31;101269.44;7366238;19;20029;-62
2022/06/05 05:46:46;;;;;;;0.00;0.00;;;;;;;15.25;60.88;101251.81;7366239;19;21384;-64
2022/06/05 05:49:13;;;;;;;0.00;0.00;;;;;;;15.27;61.37;101271.06;7366766;19;20010;-61
2022/06/05 05:51:40;;;;;;;0.00;0.00;;;;;;;15.25;60.99;101264.97;7364837;19;20097;-63
2022/06/05 05:54:06;;;;;;;0.08;0.08;;;;;;;15.28;60.80;101275.41;7367932;19;20014;-63
2022/06/05 05:56:31;;;;;;;0.00;0.00;;;;;;;15.28;61.34;101270.16;7361344;19;20342;-62
2022/06/05 05:58:58;;;;;;;0.00;0.00;;;;;;;15.29;61.02;101261.34;7363683;19;20012;-63
2022/06/05 06:01:24;;;;;;;0.10;0.10;;;;;;;15.30;61.33;101260.41;7365231;19;20019;-64
2022/06/05 06:03:49;;;;;;;0.00;0.00;;;;;;;15.20;60.91;101237.94;7367136;19;20537;-63
2022/06/05 06:06:15;;;;;;;0.00;0.00;;;;;;;15.30;61.04;101260.41;7363014;19;20082;-64
2022/06/05 06:08:41;;;;;;;0.00;0.00;;;;;;;15.31;60.78;101262.16;7364948;19;20021;-64
2022/06/05 06:11:07;;;;;;;0.00;0.00;;;;;;;15.33;60.79;101256.84;7365797;19;20107;-63
2022/06/05 06:13:32;;;;;;;0.00;0.00;;;;;;;15.34;61.32;101255.06;7365244;19;20491;-63
2022/06/05 06:15:58;;;;;;;0.00;0.00;;;;;;;15.35;61.16;101252.38;7365247;19;20062;-63
2022/06/05 06:18:23;;;;;;;0.00;0.00;;;;;;;15.39;61.18;101258.41;7361738;19;20010;-64
2022/06/05 06:20:49;;;;;;;0.00;0.00;;;;;;;15.40;61.19;101249.59;7367558;19;20347;-64
2022/06/05 06:23:15;;;;;;;0.10;0.10;;;;;;;15.42;60.92;101247.78;7364487;19;20032;-63
2022/06/05 06:25:41;;;;;;;0.05;0.05;;;;;;;15.44;61.11;101241.53;7364299;19;20109;-64
2022/06/05 06:28:07;;;;;;;0.00;0.00;;;;;;;15.45;61.29;101245.88;7362856;19;20932;-64
2022/06/05 06:30:34;;;;;;;0.00;0.00;;;;;;;15.46;60.66;101233.59;7364496;19;20090;-63
2022/06/05 06:32:59;;;;;;;0.00;0.00;;;;;;;15.48;61.10;101242.31;7363428;19;20021;-64
2022/06/05 06:35:25;;;;;;;0.00;0.00;;;;;;;15.45;60.62;101237.13;7363547;19;20010;-64
2022/06/05 06:37:50;;;;;;;0.00;0.00;;;;;;;15.50;60.87;101241.31;7364553;19;20601;-63
2022/06/05 06:40:16;;;;;;;0.10;0.10;;;;;;;15.43;60.93;101233.72;7362929;19;20006;-64
2022/06/05 06:42:41;;;;;;;0.10;0.10;;;;;;;15.50;60.55;101254.47;7363712;19;20027;-63
2022/06/05 06:45:07;;;;;;;0.00;0.00;;;;;;;15.49;60.65;101249.28;7364676;19;20011;-64
2022/06/05 06:47:34;;;;;;;0.08;0.08;;;;;;;15.47;60.77;101249.34;7363986;19;20018;-64
2022/06/05 06:49:59;;;;;;;0.00;0.00;;;;;;;15.47;60.75;101245.84;7359280;19;20363;-63
2022/06/05 06:52:25;;;;;;;0.00;0.00;;;;;;;15.47;60.91;101246.72;7364552;19;20025;-64
2022/06/05 06:54:50;;;;;;;0.00;0.00;;;;;;;15.47;61.40;101244.06;7361286;19;20018;-63
2022/06/05 06:57:16;;;;;;;0.00;0.00;;;;;;;15.47;61.07;101240.59;7363601;19;20467;-63
2022/06/05 06:59:42;;;;;;;0.00;0.00;;;;;;;15.47;61.18;101245.84;7362304;19;20020;-63
2022/06/05 07:02:07;;;;;;;0.00;0.00;;;;;;;15.48;61.31;101239.66;7370835;19;20014;-63
2022/06/05 07:04:33;;;;;;;0.00;0.00;;;;;;;15.51;61.29;101242.19;7367878;19;20793;-63
2022/06/05 07:06:58;;;;;;;0.00;0.00;;;;;;;15.52;61.64;101236.03;7370615;19;20013;-63
2022/06/05 07:09:24;;;;;;;0.00;0.00;;;;;;;15.40;61.13;101218.88;7369336;19;20035;-64
2022/06/05 07:11:49;;;;;;;0.00;0.00;;;;;;;15.56;61.58;101238.50;7369705;19;20044;-61
2022/06/05 07:14:16;;;;;;;0.00;0.00;;;;;;;15.58;61.55;101238.44;7369333;19;20014;-64
2022/06/05 07:16:42;;;;;;;0.00;0.00;;;;;;;15.60;61.55;101251.53;7368135;19;20030;-63
2022/06/05 07:19:08;;;;;;;0.00;0.00;;;;;;;15.63;61.06;101249.69;7370057;19;20465;-63
2022/06/05 07:21:33;;;;;;;0.00;0.00;;;;;;;15.55;61.61;101233.28;7369889;19;20029;-63
2022/06/05 07:23:59;;;;;;;0.03;0.03;;;;;;;15.65;60.93;101250.50;7369749;19;20014;-63
2022/06/05 07:26:28;;;;;;;0.00;0.00;;;;;;;15.67;61.06;101250.47;7365850;19;20037;-64
2022/06/05 07:28:56;;;;;;;0.00;0.00;;;;;;;15.55;61.44;101228.84;7370052;19;20014;-64
2022/06/05 07:31:21;;;;;;;;;;;;;;;15.73;59.41;101247.59;7369906;19;20010;-63
2022/06/05 07:33:47;;;;;;;0.00;0.00;;;;;;;15.67;61.17;101235.53;7367975;19;20009;-64
2022/06/05 07:36:14;;;;;;;0.00;0.00;;;;;;;15.66;61.38;101231.19;7366621;19;20090;-64
2022/06/05 07:38:40;;;;;;;;;;;;;;;15.78;58.76;101236.00;7371194;19;20017;-64
2022/06/05 07:41:14;;;;;;;0.00;0.00;;;;;;;15.76;61.10;101243.09;7369317;19;22146;-64
2022/06/05 07:43:40;;;;;;;0.00;0.00;;;;;;;15.77;61.03;101242.19;7367344;19;20094;-63
2022/06/05 07:46:06;;;;;;;0.00;0.00;;;;;;;15.79;61.38;101237.72;7369517;19;20030;-64
2022/06/05 07:48:31;;;;;;;0.00;0.00;;;;;;;15.81;62.09;101241.16;7368798;19;20991;-63
2022/06/05 07:56:34;;;;;;;0.00;0.00;;;;;;;15.93;61.89;101239.84;7367370;19;20499;-64
2022/06/05 07:59:00;;;;;;;0.00;0.00;;;;;;;15.98;62.02;101239.69;7367823;19;20014;-63
2022/06/05 08:01:25;;;;;;;0.00;0.00;;;;;;;15.92;61.33;101221.47;7366191;19;20014;-64
2022/06/05 08:03:50;;;;;;;0.00;0.00;;;;;;;16.07;61.38;101247.25;7368413;19;20014;-64
2022/06/05 08:06:16;;;;;;;0.00;0.00;;;;;;;16.10;61.34;101241.84;7367062;19;20822;-63
2022/06/05 08:08:41;;;;;;;0.00;0.00;;;;;;;16.14;60.82;101242.63;7368650;19;20010;-64
2022/06/05 08:11:07;;;;;;;0.00;0.00;;;;;;;16.11;60.43;101237.44;7365399;19;20022;-64
2022/06/05 08:13:32;;;;;;;0.00;0.00;;;;;;;16.20;60.27;101243.22;7368649;19;20037;-64
2022/06/05 08:15:58;;;;;;;0.00;0.00;;;;;;;16.21;59.57;101242.31;7366928;19;20094;-63
2022/06/05 08:18:23;;;;;;;0.00;0.00;;;;;;;16.22;59.85;101245.81;7366555;19;20098;-63
2022/06/05 08:20:49;;;;;;;0.10;0.10;;;;;;;16.19;60.04;101240.66;7367797;19;20011;-63
2022/06/05 08:23:15;;;;;;;0.00;0.00;;;;;;;16.20;59.98;101247.66;7366245;19;20049;-64
2022/06/05 08:25:41;;;;;;;0.10;0.10;;;;;;;16.19;60.07;101252.06;7367414;19;20267;-63
2022/06/05 08:28:08;;;;;;;0.00;0.00;;;;;;;16.06;60.14;101232.34;7366656;19;20791;-64
2022/06/05 08:30:33;;;;;;;0.00;0.00;;;;;;;16.14;60.02;101248.75;7368122;19;20017;-63
2022/06/05 08:32:59;;;;;;;0.10;0.10;;;;;;;16.12;60.05;101249.69;7365607;19;20382;-63
2022/06/05 08:35:24;;;;;;;0.00;0.00;;;;;;;16.09;60.07;101250.69;7366259;19;20010;-63
2022/06/05 08:43:31;;;;;;;0.00;0.00;;;;;;;15.99;59.16;101257.22;7366801;19;20082;-64
2022/06/05 08:46:10;;;;;;;0.00;0.00;;;;;;;15.95;59.16;101259.09;7365365;19;20021;-64
2022/06/05 08:48:54;;;;;;;0.10;0.10;;;;;;;15.83;59.45;101243.72;7366631;19;20047;-64
2022/06/05 08:51:26;;;;;;;0.00;0.00;;;;;;;15.88;60.05;101256.75;7361875;19;20011;-64
2022/06/05 08:53:58;;;;;;;0.00;0.00;;;;;;;15.87;60.72;101260.28;7365960;19;20011;-63
2022/06/05 08:56:38;;;;;;;0.00;0.00;;;;;;;15.85;60.16;101252.44;7344759;19;20436;-64
2022/06/05 08:59:30;;;;;;;0.00;0.00;;;;;;;15.83;60.23;101254.28;7362828;19;20021;-64
2022/06/05 09:02:04;;;;;;;0.00;0.00;;;;;;;15.82;60.73;101263.94;7265023;19;2004428;-64
2022/06/05 09:04:42;;;;;;;0.00;0.00;;;;;;;15.82;60.55;101257.81;7366459;19;20045;-63
2022/06/05 09:07:10;;;;;;;;;;;;;;;15.86;58.86;101253.28;7366598;19;20010;-62
2022/06/05 09:09:58;;;;;;;0.00;0.00;;;;;;;15.85;60.05;101249.78;7363877;19;19927;-64
2022/06/05 09:12:38;;;;;;;0.08;0.08;;;;;;;15.83;61.15;101251.63;7364832;19;20014;-64
2022/06/05 09:15:18;;;;;;;0.00;0.00;;;;;;;15.85;60.26;101256.84;7366424;19;21202;-64
2022/06/05 09:17:53;;;;;;;0.00;0.00;;;;;;;15.85;60.51;101252.44;7363871;19;20015;-64
2022/06/05 09:20:23;;;;;;;0.10;0.10;;;;;;;15.84;61.02;101258.63;7366089;19;20374;-64
2022/06/05 09:22:57;;;;;;;0.00;0.00;;;;;;;15.87;61.49;101255.88;7364232;19;20016;-64
2022/06/05 09:25:39;;;;;;;0.10;0.10;;;;;;;15.92;60.65;101253.09;7365488;19;20010;-64
2022/06/05 09:28:22;;;;;;;0.00;0.00;;;;;;;15.95;60.43;101255.59;7364870;19;20010;-63
2022/06/05 09:31:20;;;;;;;0.00;0.00;;;;;;;15.97;59.81;101259.91;7364326;19;20014;-61
2022/06/05 09:33:47;;;;;;;0.00;0.00;;;;;;;15.94;60.88;101257.38;7264976;19;2004284;-63
2022/06/05 09:36:20;;;;;;;0.00;0.00;;;;;;;15.97;60.12;101251.16;7365623;19;20034;-63
2022/06/05 09:38:58;;;;;;;0.00;0.00;;;;;;;15.98;60.16;101258.13;7365675;19;20025;-63
2022/06/05 09:41:32;;;;;;;0.10;0.10;;;;;;;15.95;60.09;101242.41;7364592;19;20046;-63
2022/06/05 09:44:04;;;;;;;0.00;0.00;;;;;;;15.97;60.46;101252.00;7361906;19;20089;-63
2022/06/05 09:46:52;;;;;;;0.10;0.10;;;;;;;16.01;59.85;101248.31;7354244;19;20018;-63
2022/06/05 09:49:23;;;;;;;;;;;;;;;16.06;58.97;101249.00;7362013;19;20044;-64
2022/06/05 09:51:49;;;;;;;0.00;0.00;;;;;;;16.02;61.01;101244.78;7360412;19;19930;-63
2022/06/05 09:54:28;;;;;;;0.00;0.00;;;;;;;16.12;59.81;101260.25;7361881;19;20662;-64
2022/06/05 10:00:14;;;;;;;0.00;0.00;;;;;;;16.09;59.69;101262.09;7251343;19;2004553;-63
2022/06/05 10:02:42;;;;;;;0.00;0.00;;;;;;;16.07;59.83;101263.06;7356979;19;20022;-62
2022/06/05 10:05:28;;;;;;;0.00;0.00;;;;;;;16.09;59.45;101266.50;7355973;19;20470;-61
2022/06/05 10:08:04;;;;;;;0.00;0.00;;;;;;;16.05;60.15;101263.09;7362978;19;20045;-63
2022/06/05 10:10:38;;;;;;;0.10;0.10;;;;;;;16.05;60.17;101264.88;7361510;19;20081;-63
2022/06/05 10:13:21;;;;;;;0.00;0.00;;;;;;;16.04;60.44;101269.28;7360033;19;20078;-63
2022/06/05 10:16:07;;;;;;;0.00;0.00;;;;;;;16.04;59.74;101269.28;7351770;19;20022;-63
2022/06/05 10:18:47;;;;;;;0.00;0.00;;;;;;;16.03;60.03;101264.94;7354581;19;20083;-62
2022/06/05 10:21:14;;;;;;;0.00;0.00;;;;;;;16.02;61.08;101265.00;7356348;19;20039;-62
2022/06/05 10:23:52;;;;;;;0.00;0.00;;;;;;;16.06;59.68;101261.31;7356833;19;20014;-61
2022/06/05 10:26:48;;;;;;;0.00;0.00;;;;;;;15.95;59.58;101235.38;7361002;19;20038;-64
2022/06/05 10:29:32;;;;;;;0.00;0.00;;;;;;;16.03;60.92;101256.19;7256563;19;2004341;-64
2022/06/05 10:32:00;;;;;;;0.00;0.00;;;;;;;16.06;60.72;101261.31;7360715;19;20018;-64
2022/06/05 10:34:31;;;;;;;0.00;0.00;;;;;;;16.06;60.55;101256.06;7363796;19;20636;-63
2022/06/05 10:37:01;;;;;;;0.00;0.00;;;;;;;16.08;60.29;101256.88;7364572;19;20021;-64
2022/06/05 10:39:51;;;;;;;0.00;0.00;;;;;;;16.10;60.18;101262.94;7367249;19;20030;-64
2022/06/05 10:42:39;;;;;;;0.00;0.00;;;;;;;16.07;60.23;101252.53;7362645;19;20035;-63
2022/06/05 10:45:04;;;;;;;;;;;;;;;16.18;58.50;101250.34;7367880;19;20015;-64
2022/06/05 10:47:40;;;;;;;0.10;0.10;;;;;;;16.20;59.76;101253.78;7370945;19;19952;-63
2022/06/05 10:50:28;;;;;;;0.00;0.00;;;;;;;16.25;59.54;101251.84;7367704;19;20454;-63
2022/06/05 10:53:12;;;;;;;0.00;0.00;;;;;;;16.29;59.37;101237.63;7366047;19;20007;-64
2022/06/05 10:55:59;;;;;;;0.00;0.00;;;;;;;16.40;59.08;101244.28;7366507;19;20006;-64
2022/06/05 10:58:43;;;;;;;0.05;0.05;;;;;;;16.48;59.11;101243.06;7368406;19;20577;-63
2022/06/05 11:01:12;;;;;;;0.00;0.00;;;;;;;16.53;59.75;101240.25;7365972;19;20748;-63
2022/06/05 11:03:52;;;;;;;0.00;0.00;;;;;;;16.59;58.87;101232.94;7368638;19;20002;-64
2022/06/05 11:06:44;;;;;;;0.00;0.00;;;;;;;16.70;58.64;101242.22;7367719;19;20471;-62
2022/06/05 11:09:35;;;;;;;0.03;0.03;;;;;;;16.74;58.68;101242.06;7267415;19;2004476;-64
2022/06/05 11:15:17;;;;;;;0.00;0.00;;;;;;;16.83;59.03;101239.06;7267352;19;2004435;-64
2022/06/05 11:17:55;;;;;;;0.00;0.00;;;;;;;16.93;58.55;101243.97;7368105;19;20030;-63
2022/06/05 11:20:24;;;;;;;0.00;0.00;;;;;;;16.95;58.82;101242.13;7368058;19;20023;-63
2022/06/05 11:23:01;;;;;;;0.00;0.00;;;;;;;16.98;58.46;101237.59;7362641;19;20030;-63
2022/06/05 11:25:32;;;;;;;0.10;0.10;;;;;;;17.01;58.64;101244.53;7363079;19;20025;-64
2022/06/05 11:28:17;;;;;;;0.00;0.00;;;;;;;17.04;58.09;101241.75;7364858;19;20023;-64
2022/06/05 11:31:25;;;;;;;0.00;0.00;;;;;;;17.04;57.97;101239.13;7365466;19;20688;-63
2022/06/05 11:34:36;;;;;;;0.00;0.00;;;;;;;17.03;58.37;101234.75;7261406;19;2004362;-64
2022/06/05 11:37:16;;;;;;;0.00;0.00;;;;;;;17.02;58.21;101240.94;7259559;19;2004397;-64
2022/06/05 11:39:56;;;;;;;0.00;0.00;;;;;;;16.96;58.04;101233.28;7360124;19;20006;-63
2022/06/05 11:42:26;;;;;;;0.00;0.00;;;;;;;16.92;58.44;101239.59;7367504;19;20049;-64
2022/06/05 11:45:03;;;;;;;0.00;0.00;;;;;;;16.87;58.57;101239.78;7366020;19;20019;-63
2022/06/05 11:50:42;;;;;;;0.00;0.00;;;;;;;16.82;58.92;101237.34;7314266;19;19930;-64
2022/06/05 11:53:16;;;;;;;0.00;0.00;;;;;;;16.81;58.18;101235.63;7365554;19;20006;-64
2022/06/05 11:55:56;;;;;;;0.00;0.00;;;;;;;16.79;58.16;101241.91;7368293;19;20010;-63
2022/06/05 11:58:36;;;;;;;0.00;0.00;;;;;;;16.73;58.31;101239.50;7363583;19;20101;-63
2022/06/05 12:01:12;;;;;;;0.00;0.00;;;;;;;16.67;58.25;101227.34;7360171;19;20011;-63
2022/06/05 12:03:47;;;;;;;0.00;0.00;;;;;;;16.62;58.69;101237.22;7312506;19;20017;-64
2022/06/05 12:06:40;;;;;;;0.00;0.00;;;;;;;16.61;58.00;101232.88;7362706;19;20021;-64
2022/06/05 12:09:16;;;;;;;0.08;0.08;;;;;;;16.58;58.74;101243.56;7265773;19;2004269;-64
2022/06/05 12:12:07;;;;;;;0.00;0.00;;;;;;;16.55;58.24;101233.13;7365744;19;20018;-64
2022/06/05 12:14:42;;;;;;;0.00;0.00;;;;;;;16.53;59.18;101237.63;7266025;19;2004459;-63